createdAt,value
2022-11-14T00:00:39.301Z,23.6
2022-11-14T00:01:41.796Z,23.6
2022-11-14T00:02:44.174Z,23.6
2022-11-14T00:03:46.739Z,23.6
2022-11-14T00:04:48.927Z,23.6
2022-11-14T00:05:51.128Z,23.6
2022-11-14T00:06:53.558Z,23.6
2022-11-14T00:07:56.218Z,23.6
2022-11-14T00:08:58.422Z,23.6
2022-11-14T00:10:00.655Z,23.6
2022-11-14T00:11:02.557Z,23.6
2022-11-14T00:12:05.063Z,23.7
2022-11-14T00:13:06.971Z,23.7
2022-11-14T00:14:09.440Z,23.7
2022-11-14T00:15:11.918Z,23.7
2022-11-14T00:16:14.652Z,23.7
2022-11-14T00:17:17.129Z,23.7
2022-11-14T00:18:19.609Z,23.7
2022-11-14T00:19:22.195Z,23.7
2022-11-14T00:20:24.114Z,23.7
2022-11-14T00:21:26.583Z,23.7
2022-11-14T00:22:29.057Z,23.7
2022-11-14T00:23:31.470Z,23.7
2022-11-14T00:24:33.123Z,23.7
2022-11-14T00:25:35.047Z,23.7
2022-11-14T00:26:36.685Z,23.7
2022-11-14T00:27:39.156Z,23.7
2022-11-14T00:28:41.630Z,23.7
2022-11-14T00:29:44.129Z,23.7
2022-11-14T00:30:46.051Z,23.7
2022-11-14T00:31:48.476Z,23.7
2022-11-14T00:32:51.015Z,23.7
2022-11-14T00:33:52.969Z,23.8
2022-11-14T00:34:55.559Z,23.8
2022-11-14T00:35:58.029Z,23.8
2022-11-14T00:37:00.519Z,23.8
2022-11-14T00:38:02.157Z,23.8
2022-11-14T00:39:04.880Z,23.8
2022-11-14T00:40:06.799Z,23.8
2022-11-14T00:41:08.757Z,23.9
2022-11-14T00:42:11.221Z,23.9
2022-11-14T00:43:13.692Z,23.9
2022-11-14T00:44:15.611Z,23.9
2022-11-14T00:45:18.124Z,23.9
2022-11-14T00:46:20.363Z,23.9
2022-11-14T00:47:23.066Z,23.9
2022-11-14T00:48:25.276Z,23.9
2022-11-14T00:49:27.785Z,23.9
2022-11-14T00:50:30.109Z,23.9
2022-11-14T00:51:32.290Z,23.9
2022-11-14T00:52:34.755Z,23.9
2022-11-14T00:53:36.679Z,23.9
2022-11-14T00:54:39.106Z,23.9
2022-11-14T00:55:41.581Z,23.9
2022-11-14T00:56:43.499Z,23.9
2022-11-14T00:57:45.121Z,23.9
2022-11-14T00:58:47.042Z,23.9
2022-11-14T00:59:49.510Z,23.9
2022-11-14T01:00:52.179Z,23.9
2022-11-14T01:02:59.844Z,23.9
2022-11-14T01:04:01.764Z,23.9
2022-11-14T01:05:04.245Z,23.9
2022-11-14T01:06:06.859Z,24
2022-11-14T01:07:08.859Z,24
2022-11-14T01:08:11.061Z,24
2022-11-14T01:09:13.439Z,24
2022-11-14T01:10:16.010Z,24
2022-11-14T01:11:18.207Z,24
2022-11-14T01:12:20.408Z,24
2022-11-14T01:13:22.883Z,24
2022-11-14T01:14:25.080Z,24
2022-11-14T01:15:27.562Z,24
2022-11-14T01:16:30.034Z,23.9
2022-11-14T01:17:32.518Z,23.9
2022-11-14T01:18:35.215Z,23.9
2022-11-14T01:19:37.406Z,23.9
2022-11-14T01:20:39.875Z,24
2022-11-14T01:21:42.393Z,24
2022-11-14T01:22:44.860Z,24
2022-11-14T01:23:47.144Z,24
2022-11-14T01:24:49.333Z,24
2022-11-14T01:25:51.767Z,24
2022-11-14T01:26:54.252Z,24
2022-11-14T01:27:56.733Z,24
2022-11-14T01:28:58.657Z,24
2022-11-14T01:30:00.860Z,24
2022-11-14T01:31:03.346Z,24
2022-11-14T01:32:05.546Z,24
2022-11-14T01:33:08.014Z,24
2022-11-14T01:34:10.641Z,24.1
2022-11-14T01:35:13.109Z,24
2022-11-14T01:36:15.576Z,24.1
2022-11-14T01:37:17.881Z,24.1
2022-11-14T01:38:20.080Z,24.1
2022-11-14T01:39:22.545Z,24.1
2022-11-14T01:40:24.745Z,24.1
2022-11-14T01:41:27.446Z,24.1
2022-11-14T01:42:29.932Z,24.1
2022-11-14T01:43:32.134Z,24.1
2022-11-14T01:44:33.771Z,24.1
2022-11-14T01:45:35.688Z,24.1
2022-11-14T01:46:38.167Z,24.1
2022-11-14T01:47:40.339Z,24.1
2022-11-14T01:48:42.540Z,24.1
2022-11-14T01:49:44.951Z,24.1
2022-11-14T01:50:47.143Z,24.1
2022-11-14T01:51:49.618Z,24.1
2022-11-14T01:52:51.948Z,24.2
2022-11-14T01:53:54.155Z,24.2
2022-11-14T01:54:56.641Z,24.2
2022-11-14T01:55:59.131Z,24.2
2022-11-14T01:57:01.592Z,24.2
2022-11-14T01:58:04.075Z,24.2
2022-11-14T01:59:06.278Z,24.2
2022-11-14T02:00:08.177Z,24.2
2022-11-14T02:01:10.297Z,24.2
2022-11-14T02:02:12.961Z,24.2
2022-11-14T02:03:15.429Z,24.2
2022-11-14T02:04:17.916Z,24.2
2022-11-14T02:05:22.414Z,24.2
2022-11-14T02:06:24.900Z,24.2
2022-11-14T02:07:27.684Z,24.2
2022-11-14T02:08:31.385Z,24.2
2022-11-14T02:09:34.119Z,24.2
2022-11-14T02:10:36.321Z,24.2
2022-11-14T02:11:38.511Z,24.2
2022-11-14T02:12:40.934Z,24.2
2022-11-14T02:13:42.571Z,24.3
2022-11-14T02:14:44.764Z,24.2
2022-11-14T02:15:47.309Z,24.3
2022-11-14T02:17:54.501Z,24.3
2022-11-14T02:18:56.974Z,24.3
2022-11-14T02:21:04.657Z,24.3
2022-11-14T02:22:07.117Z,24.3
2022-11-14T02:23:09.342Z,24.3
2022-11-14T02:24:12.037Z,24.3
2022-11-14T02:25:14.524Z,24.3
2022-11-14T02:26:16.991Z,24.3
2022-11-14T02:27:19.190Z,24.3
2022-11-14T02:28:21.882Z,24.3
2022-11-14T02:29:24.375Z,24.3
2022-11-14T02:30:26.886Z,24.3
2022-11-14T02:31:28.788Z,24.3
2022-11-14T02:33:36.259Z,24.3
2022-11-14T02:34:38.438Z,24.3
2022-11-14T02:35:40.070Z,24.3
2022-11-14T02:36:42.773Z,24.3
2022-11-14T02:37:44.964Z,24.3
2022-11-14T02:38:47.434Z,24.3
2022-11-14T02:39:49.739Z,24.3
2022-11-14T02:40:52.206Z,24.3
2022-11-14T02:41:54.400Z,24.3
2022-11-14T02:42:56.583Z,24.3
2022-11-14T02:43:59.280Z,24.3
2022-11-14T02:45:01.199Z,24.3
2022-11-14T02:47:08.662Z,24.3
2022-11-14T02:48:11.181Z,24.3
2022-11-14T02:49:14.016Z,24.3
2022-11-14T02:50:16.233Z,24.3
2022-11-14T02:51:18.408Z,24.3
2022-11-14T02:52:20.844Z,24.3
2022-11-14T02:53:23.324Z,24.3
2022-11-14T02:54:25.515Z,24.3
2022-11-14T02:55:27.525Z,24.3
2022-11-14T02:56:29.716Z,24.3
2022-11-14T02:57:31.637Z,24.3
2022-11-14T02:58:34.306Z,24.3
2022-11-14T02:59:37.006Z,24.3
2022-11-14T03:01:44.804Z,24.4
2022-11-14T03:02:47.259Z,24.3
2022-11-14T03:03:49.188Z,24.3
2022-11-14T03:04:51.384Z,24.4
2022-11-14T03:05:53.611Z,24.4
2022-11-14T03:06:56.065Z,24.4
2022-11-14T03:07:58.624Z,24.3
2022-11-14T03:09:00.816Z,24.3
2022-11-14T03:10:03.286Z,24.4
2022-11-14T03:11:05.637Z,24.4
2022-11-14T03:12:07.836Z,24.4
2022-11-14T03:13:10.327Z,24.4
2022-11-14T03:14:12.811Z,24.4
2022-11-14T03:15:15.250Z,24.4
2022-11-14T03:16:17.727Z,24.4
2022-11-14T03:17:19.895Z,24.4
2022-11-14T03:18:22.068Z,24.4
2022-11-14T03:19:24.550Z,24.4
2022-11-14T03:20:27.034Z,24.4
2022-11-14T03:21:29.500Z,24.4
2022-11-14T03:22:31.443Z,24.4
2022-11-14T03:23:34.140Z,24.4
2022-11-14T03:24:36.333Z,24.4
2022-11-14T03:25:38.517Z,24.4
2022-11-14T03:26:41.114Z,24.4
2022-11-14T03:27:43.304Z,24.4
2022-11-14T03:28:45.490Z,24.4
2022-11-14T03:29:47.964Z,24.4
2022-11-14T03:30:50.385Z,24.4
2022-11-14T03:31:52.307Z,24.4
2022-11-14T03:32:54.495Z,24.4
2022-11-14T03:33:56.992Z,24.4
2022-11-14T03:34:59.469Z,24.4
2022-11-14T03:36:01.678Z,24.4
2022-11-14T03:37:03.879Z,24.4
2022-11-14T03:38:05.792Z,24.4
2022-11-14T03:39:07.937Z,24.4
2022-11-14T03:40:10.110Z,24.4
2022-11-14T03:41:12.575Z,24.4
2022-11-14T03:42:14.878Z,24.4
2022-11-14T03:43:17.371Z,24.4
2022-11-14T03:44:19.847Z,24.4
2022-11-14T03:45:22.045Z,24.4
2022-11-14T03:46:24.456Z,24.4
2022-11-14T03:47:26.931Z,24.4
2022-11-14T03:48:30.625Z,24.4
2022-11-14T03:49:34.581Z,24.4
2022-11-14T03:50:36.498Z,24.4
2022-11-14T03:51:38.972Z,24.4
2022-11-14T03:52:40.885Z,24.4
2022-11-14T03:53:43.350Z,24.4
2022-11-14T03:54:46.097Z,24.4
2022-11-14T03:55:48.299Z,24.4
2022-11-14T03:56:50.495Z,24.4
2022-11-14T03:57:53.069Z,24.4
2022-11-14T03:58:55.539Z,24.4
2022-11-14T03:59:57.507Z,24.4
2022-11-14T04:00:59.988Z,24.4
2022-11-14T04:02:02.627Z,24.4
2022-11-14T04:03:05.119Z,24.4
2022-11-14T04:04:07.299Z,24.4
2022-11-14T04:05:09.515Z,24.4
2022-11-14T04:06:11.691Z,24.3
2022-11-14T04:07:14.169Z,24.3
2022-11-14T04:08:16.878Z,24.3
2022-11-14T04:09:19.354Z,24.3
2022-11-14T04:10:21.791Z,24.2
2022-11-14T04:11:23.745Z,24.2
2022-11-14T04:12:25.917Z,24.2
2022-11-14T04:13:28.506Z,24.2
2022-11-14T04:14:30.698Z,24.2
2022-11-14T04:15:33.177Z,24.1
2022-11-14T04:16:35.366Z,24.1
2022-11-14T04:18:42.809Z,24.1
2022-11-14T04:19:45.274Z,24.1
2022-11-14T04:20:47.463Z,24.1
2022-11-14T04:21:49.651Z,24.1
2022-11-14T04:22:51.841Z,24.1
2022-11-14T04:23:54.027Z,24
2022-11-14T04:24:56.225Z,24
2022-11-14T04:25:58.928Z,24
2022-11-14T04:27:01.402Z,24
2022-11-14T04:28:03.641Z,24
2022-11-14T04:29:06.223Z,24
2022-11-14T04:30:08.152Z,24
2022-11-14T04:31:10.347Z,24
2022-11-14T04:32:12.818Z,24
2022-11-14T04:33:15.532Z,24
2022-11-14T04:34:17.745Z,24
2022-11-14T04:35:19.950Z,24
2022-11-14T04:36:22.529Z,24
2022-11-14T04:37:24.721Z,24
2022-11-14T04:38:27.382Z,24
2022-11-14T04:39:30.484Z,24
2022-11-14T04:40:32.819Z,24
2022-11-14T04:41:35.250Z,24
2022-11-14T04:42:37.791Z,24
2022-11-14T04:43:40.392Z,24
2022-11-14T04:44:42.388Z,24
2022-11-14T04:45:44.798Z,23.9
2022-11-14T04:46:46.978Z,23.9
2022-11-14T04:47:49.241Z,23.9
2022-11-14T04:48:51.997Z,23.9
2022-11-14T04:49:54.401Z,23.9
2022-11-14T04:50:56.999Z,23.9
2022-11-14T04:51:59.247Z,23.9
2022-11-14T04:53:01.769Z,23.9
2022-11-14T04:54:04.297Z,23.9
2022-11-14T04:55:06.763Z,23.9
2022-11-14T04:56:09.244Z,23.9
2022-11-14T04:57:11.399Z,23.9
2022-11-14T04:58:13.327Z,23.9
2022-11-14T05:00:20.510Z,23.9
2022-11-14T05:01:22.946Z,23.9
2022-11-14T05:02:25.365Z,23.9
2022-11-14T05:03:27.293Z,23.9
2022-11-14T05:04:29.524Z,23.9
2022-11-14T05:05:31.990Z,23.9
2022-11-14T05:06:34.198Z,23.9
2022-11-14T05:07:37.042Z,23.9
2022-11-14T05:08:39.654Z,23.9
2022-11-14T05:09:42.127Z,23.9
2022-11-14T05:10:44.326Z,23.9
2022-11-14T05:11:46.798Z,23.9
2022-11-14T05:12:49.037Z,23.9
2022-11-14T05:13:51.522Z,23.9
2022-11-14T05:14:53.750Z,23.9
2022-11-14T05:15:56.219Z,23.9
2022-11-14T05:16:58.422Z,23.8
2022-11-14T05:18:00.900Z,23.8
2022-11-14T05:19:03.651Z,23.8
2022-11-14T05:20:06.166Z,23.8
2022-11-14T05:21:07.804Z,23.8
2022-11-14T05:22:09.998Z,23.8
2022-11-14T05:23:12.467Z,23.8
2022-11-14T05:24:14.933Z,23.8
2022-11-14T05:25:17.417Z,23.8
2022-11-14T05:26:19.895Z,23.8
2022-11-14T05:27:22.368Z,23.8
2022-11-14T05:28:24.344Z,23.8
2022-11-14T05:29:26.839Z,23.8
2022-11-14T05:30:29.379Z,23.8
2022-11-14T05:31:31.889Z,23.8
2022-11-14T05:32:34.418Z,23.8
2022-11-14T05:33:36.895Z,23.8
2022-11-14T05:34:39.379Z,23.8
2022-11-14T05:35:41.902Z,23.8
2022-11-14T05:36:44.094Z,23.8
2022-11-14T05:37:46.020Z,23.8
2022-11-14T05:38:47.662Z,23.8
2022-11-14T05:39:50.139Z,23.8
2022-11-14T05:40:52.612Z,23.8
2022-11-14T05:41:55.103Z,23.8
2022-11-14T05:42:57.299Z,23.8
2022-11-14T05:43:59.820Z,23.8
2022-11-14T05:45:02.025Z,23.8
2022-11-14T05:46:04.269Z,23.8
2022-11-14T05:47:06.460Z,23.8
2022-11-14T05:48:08.486Z,23.8
2022-11-14T05:49:10.678Z,23.8
2022-11-14T05:50:13.145Z,23.8
2022-11-14T05:51:15.129Z,23.8
2022-11-14T05:52:17.603Z,23.8
2022-11-14T05:53:19.802Z,23.8
2022-11-14T05:54:22.281Z,23.8
2022-11-14T05:55:25.940Z,23.8
2022-11-14T05:56:28.256Z,23.8
2022-11-14T05:57:30.769Z,23.8
2022-11-14T05:58:34.005Z,23.8
2022-11-14T05:59:36.557Z,23.8
2022-11-14T06:01:44.239Z,23.8
2022-11-14T06:02:46.625Z,23.8
2022-11-14T06:03:48.557Z,23.8
2022-11-14T06:04:51.045Z,23.8
2022-11-14T06:05:53.533Z,23.8
2022-11-14T06:06:56.219Z,23.8
2022-11-14T06:07:58.606Z,23.8
2022-11-14T06:09:01.091Z,23.8
2022-11-14T06:10:03.285Z,23.8
2022-11-14T06:11:05.482Z,23.7
2022-11-14T06:12:07.990Z,23.8
2022-11-14T06:13:09.910Z,23.8
2022-11-14T06:14:12.157Z,23.7
2022-11-14T06:15:14.672Z,23.7
2022-11-14T06:16:17.143Z,23.7
2022-11-14T06:17:19.647Z,23.7
2022-11-14T06:18:22.123Z,23.7
2022-11-14T06:19:24.637Z,23.7
2022-11-14T06:20:27.112Z,23.7
2022-11-14T06:21:28.735Z,23.7
2022-11-14T06:22:30.698Z,23.7
2022-11-14T06:23:32.328Z,23.7
2022-11-14T06:24:34.815Z,23.7
2022-11-14T06:25:37.021Z,23.7
2022-11-14T06:26:38.956Z,23.7
2022-11-14T06:27:40.864Z,23.7
2022-11-14T06:28:43.341Z,23.7
2022-11-14T06:29:45.548Z,23.7
2022-11-14T06:30:48.080Z,23.7
2022-11-14T06:31:50.560Z,23.7
2022-11-14T06:32:52.795Z,23.7
2022-11-14T06:33:55.028Z,23.7
2022-11-14T06:34:57.552Z,23.7
2022-11-14T06:35:59.488Z,23.7
2022-11-14T06:37:01.399Z,23.7
2022-11-14T06:38:03.913Z,23.7
2022-11-14T06:39:05.853Z,23.7
2022-11-14T06:40:08.044Z,23.7
2022-11-14T06:41:10.522Z,23.7
2022-11-14T06:42:12.426Z,23.7
2022-11-14T06:43:14.356Z,23.7
2022-11-14T06:44:16.824Z,23.7
2022-11-14T06:45:20.322Z,23.7
2022-11-14T06:46:22.865Z,23.7
2022-11-14T06:47:25.348Z,23.7
2022-11-14T06:48:27.950Z,23.7
2022-11-14T06:49:32.553Z,23.7
2022-11-14T06:50:37.452Z,23.8
2022-11-14T06:51:39.646Z,23.8
2022-11-14T06:52:42.127Z,23.7
2022-11-14T06:53:44.366Z,23.7
2022-11-14T06:54:46.563Z,23.7
2022-11-14T06:55:48.495Z,23.7
2022-11-14T06:56:50.987Z,23.7
2022-11-14T06:57:53.201Z,23.7
2022-11-14T06:58:55.139Z,23.7
2022-11-14T06:59:57.347Z,23.7
2022-11-14T07:00:59.541Z,23.7
2022-11-14T07:02:02.071Z,23.7
2022-11-14T07:03:04.218Z,23.7
2022-11-14T07:04:06.646Z,23.7
2022-11-14T07:05:09.158Z,23.7
2022-11-14T07:06:11.390Z,23.7
2022-11-14T07:07:13.814Z,23.7
2022-11-14T07:09:21.483Z,23.7
2022-11-14T07:10:23.446Z,23.7
2022-11-14T07:11:25.939Z,23.7
2022-11-14T07:12:27.881Z,23.7
2022-11-14T07:13:30.104Z,23.7
2022-11-14T07:14:32.015Z,23.7
2022-11-14T07:15:34.504Z,23.7
2022-11-14T07:16:36.421Z,23.7
2022-11-14T07:17:38.938Z,23.7
2022-11-14T07:18:41.414Z,23.7
2022-11-14T07:19:43.339Z,23.7
2022-11-14T07:20:45.248Z,23.7
2022-11-14T07:21:47.484Z,23.7
2022-11-14T07:22:49.665Z,23.7
2022-11-14T07:23:51.873Z,23.7
2022-11-14T07:24:53.801Z,23.7
2022-11-14T07:25:56.351Z,23.7
2022-11-14T07:26:58.832Z,23.7
2022-11-14T07:28:01.333Z,23.7
2022-11-14T07:29:04.168Z,23.7
2022-11-14T07:30:06.377Z,23.7
2022-11-14T07:31:08.851Z,23.7
2022-11-14T07:32:11.339Z,23.7
2022-11-14T07:33:13.872Z,23.7
2022-11-14T07:34:16.070Z,23.7
2022-11-14T07:35:18.138Z,23.7
2022-11-14T07:36:20.486Z,23.7
2022-11-14T07:37:22.996Z,23.7
2022-11-14T07:38:25.204Z,23.7
2022-11-14T07:39:27.404Z,23.7
2022-11-14T07:40:29.733Z,23.7
2022-11-14T07:41:32.257Z,23.7
2022-11-14T07:42:34.749Z,23.7
2022-11-14T07:43:36.960Z,23.7
2022-11-14T07:44:39.171Z,23.7
2022-11-14T07:45:41.649Z,23.7
2022-11-14T07:46:44.168Z,23.7
2022-11-14T07:47:46.398Z,23.7
2022-11-14T07:48:48.947Z,23.7
2022-11-14T07:49:51.450Z,23.7
2022-11-14T07:50:53.960Z,23.7
2022-11-14T07:51:56.164Z,23.7
2022-11-14T07:52:58.145Z,23.7
2022-11-14T07:54:00.613Z,23.7
2022-11-14T07:55:02.854Z,23.7
2022-11-14T07:56:05.032Z,23.7
2022-11-14T07:57:07.562Z,23.7
2022-11-14T07:58:09.756Z,23.7
2022-11-14T07:59:11.671Z,23.7
2022-11-14T08:00:14.116Z,23.7
2022-11-14T08:01:16.671Z,23.7
2022-11-14T08:02:18.579Z,23.7
2022-11-14T08:03:21.054Z,23.7
2022-11-14T08:04:23.595Z,23.7
2022-11-14T08:05:25.801Z,23.7
2022-11-14T08:06:28.064Z,23.7
2022-11-14T08:07:30.859Z,23.7
2022-11-14T08:08:34.158Z,23.7
2022-11-14T08:09:36.685Z,23.7
2022-11-14T08:10:38.623Z,23.7
2022-11-14T08:11:41.093Z,23.7
2022-11-14T08:12:43.608Z,23.7
2022-11-14T08:13:45.834Z,23.7
2022-11-14T08:14:47.768Z,23.7
2022-11-14T08:15:50.243Z,23.7
2022-11-14T08:16:52.464Z,23.7
2022-11-14T08:17:54.668Z,23.7
2022-11-14T08:18:56.868Z,23.7
2022-11-14T08:19:59.431Z,23.7
2022-11-14T08:21:01.710Z,23.7
2022-11-14T08:22:03.914Z,23.7
2022-11-14T08:23:06.128Z,23.7
2022-11-14T08:24:08.349Z,23.7
2022-11-14T08:25:09.996Z,23.7
2022-11-14T08:26:11.901Z,23.7
2022-11-14T08:27:14.382Z,23.7
2022-11-14T08:28:16.646Z,23.7
2022-11-14T08:29:18.874Z,23.7
2022-11-14T08:30:21.133Z,23.7
2022-11-14T08:31:23.623Z,23.7
2022-11-14T08:32:25.869Z,23.7
2022-11-14T08:33:28.077Z,23.7
2022-11-14T08:34:30.634Z,23.7
2022-11-14T08:35:32.906Z,23.7
2022-11-14T08:36:35.136Z,23.7
2022-11-14T08:37:37.625Z,23.7
2022-11-14T08:38:39.869Z,23.7
2022-11-14T08:39:42.096Z,23.7
2022-11-14T08:40:44.577Z,23.7
2022-11-14T08:41:46.814Z,23.7
2022-11-14T08:42:48.726Z,23.7
2022-11-14T08:43:50.997Z,23.7
2022-11-14T08:44:53.737Z,23.7
2022-11-14T08:45:55.653Z,23.7
2022-11-14T08:47:02.326Z,23.7
2022-11-14T08:48:04.827Z,23.7
2022-11-14T08:49:07.031Z,23.7
2022-11-14T08:50:09.263Z,23.7
2022-11-14T08:51:11.806Z,23.6
2022-11-14T08:53:19.511Z,23.6
2022-11-14T08:54:21.707Z,23.6
2022-11-14T08:55:23.971Z,23.6
2022-11-14T08:56:26.446Z,23.7
2022-11-14T08:57:28.670Z,23.7
2022-11-14T08:58:32.878Z,23.6
2022-11-14T08:59:36.074Z,23.6
2022-11-14T09:00:38.600Z,23.7
2022-11-14T09:01:40.559Z,23.6
2022-11-14T09:02:42.784Z,23.7
2022-11-14T09:03:45.526Z,23.6
2022-11-14T09:04:48.758Z,23.7
2022-11-14T09:05:50.940Z,23.6
2022-11-14T09:06:53.331Z,23.6
2022-11-14T09:07:55.768Z,23.6
2022-11-14T09:08:57.672Z,23.6
2022-11-14T09:09:59.873Z,23.7
2022-11-14T09:12:07.344Z,23.6
2022-11-14T09:13:09.543Z,23.6
2022-11-14T09:14:11.747Z,23.6
2022-11-14T09:15:14.268Z,23.6
2022-11-14T09:16:16.189Z,23.6
2022-11-14T09:17:18.683Z,23.6
2022-11-14T09:18:20.875Z,23.6
2022-11-14T09:19:22.917Z,23.6
2022-11-14T09:21:29.861Z,23.6
2022-11-14T09:22:32.442Z,23.6
2022-11-14T09:23:35.206Z,23.6
2022-11-14T09:24:37.685Z,23.6
2022-11-14T09:25:40.189Z,23.6
2022-11-14T09:26:42.157Z,23.6
2022-11-14T09:27:44.660Z,23.6
2022-11-14T09:28:46.841Z,23.6
2022-11-14T09:29:49.323Z,23.6
2022-11-14T09:30:51.578Z,23.6
2022-11-14T09:31:53.780Z,23.6
2022-11-14T09:32:55.681Z,23.6
2022-11-14T09:33:58.174Z,23.6
2022-11-14T09:35:00.124Z,23.6
2022-11-14T09:36:02.630Z,23.6
2022-11-14T09:37:05.112Z,23.6
2022-11-14T09:38:07.701Z,23.6
2022-11-14T09:39:10.188Z,23.6
2022-11-14T09:40:12.516Z,23.6
2022-11-14T09:41:14.715Z,23.6
2022-11-14T09:42:18.591Z,23.6
2022-11-14T09:43:21.055Z,23.6
2022-11-14T09:44:23.543Z,23.6
2022-11-14T09:45:26.010Z,23.6
2022-11-14T09:46:28.555Z,23.6
2022-11-14T09:47:30.772Z,23.6
2022-11-14T09:48:33.891Z,23.6
2022-11-14T09:49:37.108Z,23.6
2022-11-14T09:50:39.045Z,23.6
2022-11-14T09:51:41.537Z,23.6
2022-11-14T09:52:43.742Z,23.6
2022-11-14T09:53:45.973Z,23.6
2022-11-14T09:54:48.445Z,23.6
2022-11-14T09:55:50.415Z,23.6
2022-11-14T09:56:52.616Z,23.6
2022-11-14T09:57:54.845Z,23.6
2022-11-14T09:58:57.324Z,23.6
2022-11-14T09:59:59.543Z,23.6
2022-11-14T10:02:07.131Z,23.6
2022-11-14T10:03:09.598Z,23.6
2022-11-14T10:04:11.552Z,23.6
2022-11-14T10:05:13.747Z,23.6
2022-11-14T10:06:15.967Z,23.6
2022-11-14T10:07:18.778Z,23.6
2022-11-14T10:08:21.148Z,23.6
2022-11-14T10:10:28.673Z,23.6
2022-11-14T10:11:37.136Z,23.6
2022-11-14T10:12:39.629Z,23.6
2022-11-14T10:13:41.863Z,23.6
2022-11-14T10:14:43.785Z,23.6
2022-11-14T10:15:46.275Z,23.6
2022-11-14T10:16:48.780Z,23.6
2022-11-14T10:17:51.280Z,23.6
2022-11-14T10:18:53.260Z,23.6
2022-11-14T10:19:55.195Z,23.6
2022-11-14T10:20:57.688Z,23.6
2022-11-14T10:22:00.195Z,23.6
2022-11-14T10:23:02.871Z,23.7
2022-11-14T10:24:04.818Z,23.6
2022-11-14T10:25:07.343Z,23.7
2022-11-14T10:26:09.599Z,23.6
2022-11-14T10:27:11.542Z,23.6
2022-11-14T10:28:14.025Z,23.7
2022-11-14T10:29:15.990Z,23.7
2022-11-14T10:30:18.222Z,23.7
2022-11-14T10:31:20.476Z,23.7
2022-11-14T10:32:22.705Z,23.7
2022-11-14T10:33:25.210Z,23.7
2022-11-14T10:34:28.040Z,23.6
2022-11-14T10:36:35.138Z,23.6
2022-11-14T10:37:37.622Z,23.6
2022-11-14T10:38:39.821Z,23.6
2022-11-14T10:39:42.294Z,23.6
2022-11-14T10:40:44.507Z,23.6
2022-11-14T10:42:51.778Z,23.6
2022-11-14T10:43:54.245Z,23.6
2022-11-14T10:44:55.972Z,23.6
2022-11-14T10:45:58.463Z,23.6
2022-11-14T10:47:00.964Z,23.6
2022-11-14T10:48:03.427Z,23.6
2022-11-14T10:49:05.342Z,23.6
2022-11-14T10:50:07.038Z,23.6
2022-11-14T10:51:09.533Z,23.6
2022-11-14T10:52:11.735Z,23.6
2022-11-14T10:53:14.221Z,23.6
2022-11-14T10:54:15.873Z,23.6
2022-11-14T10:55:18.354Z,23.6
2022-11-14T10:56:21.954Z,23.6
2022-11-14T10:57:23.867Z,23.6
2022-11-14T10:58:25.829Z,23.6
2022-11-14T10:59:27.850Z,23.6
2022-11-14T11:00:30.391Z,23.6
2022-11-14T11:01:32.815Z,23.6
2022-11-14T11:02:37.617Z,23.6
2022-11-14T11:03:39.837Z,23.6
2022-11-14T11:04:42.540Z,23.6
2022-11-14T11:05:45.059Z,23.6
2022-11-14T11:06:47.444Z,23.6
2022-11-14T11:07:49.484Z,23.6
2022-11-14T11:08:52.668Z,23.6
2022-11-14T11:09:54.965Z,23.6
2022-11-14T11:10:56.807Z,23.6
2022-11-14T11:11:59.293Z,23.6
2022-11-14T11:13:01.719Z,23.6
2022-11-14T11:14:04.297Z,23.6
2022-11-14T11:15:06.780Z,23.6
2022-11-14T11:16:09.006Z,23.6
2022-11-14T11:17:11.532Z,23.6
2022-11-14T11:18:14.012Z,23.6
2022-11-14T11:19:16.484Z,23.6
2022-11-14T11:20:18.668Z,23.6
2022-11-14T11:21:21.413Z,23.6
2022-11-14T11:22:23.960Z,23.6
2022-11-14T11:23:25.883Z,23.6
2022-11-14T11:24:28.369Z,23.6
2022-11-14T11:25:30.562Z,23.6
2022-11-14T11:26:32.501Z,23.6
2022-11-14T11:27:34.698Z,23.6
2022-11-14T11:28:36.946Z,23.6
2022-11-14T11:29:39.467Z,23.6
2022-11-14T11:30:41.939Z,23.6
2022-11-14T11:31:44.427Z,23.6
2022-11-14T11:32:46.913Z,23.6
2022-11-14T11:33:49.114Z,23.6
2022-11-14T11:34:51.024Z,23.6
2022-11-14T11:35:53.262Z,23.6
2022-11-14T11:36:55.778Z,23.6
2022-11-14T11:37:58.256Z,23.6
2022-11-14T11:39:00.726Z,23.6
2022-11-14T11:40:02.629Z,23.6
2022-11-14T11:41:06.875Z,23.6
2022-11-14T11:42:11.804Z,23.6
2022-11-14T11:44:19.056Z,23.6
2022-11-14T11:45:21.338Z,23.6
2022-11-14T11:46:23.828Z,23.6
2022-11-14T11:47:26.348Z,23.6
2022-11-14T11:48:28.558Z,23.6
2022-11-14T11:49:31.027Z,23.6
2022-11-14T11:50:33.498Z,23.6
2022-11-14T11:51:35.972Z,23.6
2022-11-14T11:52:37.950Z,23.6
2022-11-14T11:53:40.161Z,23.6
2022-11-14T11:54:42.642Z,23.6
2022-11-14T11:55:44.894Z,23.6
2022-11-14T11:56:47.106Z,23.6
2022-11-14T11:57:49.603Z,23.6
2022-11-14T11:58:52.099Z,23.6
2022-11-14T11:59:54.573Z,23.6
2022-11-14T12:00:56.855Z,23.6
2022-11-14T12:01:59.221Z,23.6
2022-11-14T12:03:01.746Z,23.6
2022-11-14T12:04:04.962Z,23.6
2022-11-14T12:05:07.639Z,23.6
2022-11-14T12:06:10.134Z,23.6
2022-11-14T12:07:12.706Z,23.6
2022-11-14T12:09:20.139Z,23.6
2022-11-14T12:10:22.622Z,23.6
2022-11-14T12:11:24.546Z,23.6
2022-11-14T12:12:27.025Z,23.6
2022-11-14T12:13:30.069Z,23.6
2022-11-14T12:14:33.874Z,23.6
2022-11-14T12:15:35.816Z,23.6
2022-11-14T12:16:38.353Z,23.6
2022-11-14T12:17:40.546Z,23.6
2022-11-14T12:18:43.042Z,23.6
2022-11-14T12:19:45.242Z,23.6
2022-11-14T12:20:47.717Z,23.6
2022-11-14T12:22:55.184Z,23.6
2022-11-14T12:23:57.723Z,23.6
2022-11-14T12:25:00.196Z,23.6
2022-11-14T12:26:02.407Z,23.6
2022-11-14T12:27:04.693Z,23.6
2022-11-14T12:28:07.322Z,23.6
2022-11-14T12:29:09.666Z,23.6
2022-11-14T12:30:11.336Z,23.6
2022-11-14T12:31:13.263Z,23.6
2022-11-14T12:32:15.233Z,23.6
2022-11-14T12:33:17.440Z,23.6
2022-11-14T12:34:20.148Z,23.6
2022-11-14T12:35:23.041Z,23.6
2022-11-14T12:36:25.670Z,23.6
2022-11-14T12:37:28.389Z,23.6
2022-11-14T12:38:30.739Z,23.6
2022-11-14T12:39:33.295Z,23.6
2022-11-14T12:40:35.497Z,23.6
2022-11-14T12:41:37.403Z,23.6
2022-11-14T12:42:39.590Z,23.6
2022-11-14T12:43:43.756Z,23.6
2022-11-14T12:44:47.104Z,23.6
2022-11-14T12:45:49.595Z,23.6
2022-11-14T12:46:51.897Z,23.6
2022-11-14T12:47:53.869Z,23.6
2022-11-14T12:48:56.123Z,23.6
2022-11-14T12:49:58.622Z,23.6
2022-11-14T12:51:00.539Z,23.6
2022-11-14T12:52:02.751Z,23.6
2022-11-14T12:53:05.230Z,23.6
2022-11-14T12:54:07.428Z,23.6
2022-11-14T12:55:09.998Z,23.6
2022-11-14T12:56:12.232Z,23.6
2022-11-14T12:57:14.430Z,23.6
2022-11-14T12:58:16.931Z,23.6
2022-11-14T12:59:19.130Z,23.6
2022-11-14T13:00:21.340Z,23.6
2022-11-14T13:01:23.618Z,23.6
2022-11-14T13:02:26.012Z,23.6
2022-11-14T13:03:29.132Z,23.6
2022-11-14T13:04:32.776Z,23.6
2022-11-14T13:05:35.002Z,23.6
2022-11-14T13:06:37.208Z,23.6
2022-11-14T13:07:39.917Z,23.6
2022-11-14T13:08:42.268Z,23.6
2022-11-14T13:09:44.491Z,23.6
2022-11-14T13:10:46.767Z,23.6
2022-11-14T13:11:49.259Z,23.6
2022-11-14T13:12:51.453Z,23.6
2022-11-14T13:13:53.934Z,23.6
2022-11-14T13:14:56.433Z,23.6
2022-11-14T13:15:58.637Z,23.6
2022-11-14T13:17:01.108Z,23.6
2022-11-14T13:18:03.032Z,23.6
2022-11-14T13:19:05.287Z,23.6
2022-11-14T13:20:07.763Z,23.6
2022-11-14T13:21:09.706Z,23.6
2022-11-14T13:22:12.187Z,23.6
2022-11-14T13:23:14.401Z,23.6
2022-11-14T13:24:16.896Z,23.6
2022-11-14T13:25:19.723Z,23.6
2022-11-14T13:26:22.292Z,23.6
2022-11-14T13:28:29.189Z,23.6
2022-11-14T13:29:31.382Z,23.6
2022-11-14T13:30:33.856Z,23.6
2022-11-14T13:31:36.053Z,23.6
2022-11-14T13:32:38.553Z,23.6
2022-11-14T13:33:41.037Z,23.6
2022-11-14T13:34:43.588Z,23.6
2022-11-14T13:35:46.076Z,23.6
2022-11-14T13:36:48.586Z,23.6
2022-11-14T13:37:50.791Z,23.6
2022-11-14T13:38:53.281Z,23.6
2022-11-14T13:39:55.469Z,23.6
2022-11-14T13:40:57.689Z,23.6
2022-11-14T13:42:00.351Z,23.6
2022-11-14T13:43:03.108Z,23.6
2022-11-14T13:44:05.071Z,23.6
2022-11-14T13:45:07.550Z,23.6
2022-11-14T13:46:09.748Z,23.6
2022-11-14T13:47:11.415Z,23.6
2022-11-14T13:48:13.594Z,23.6
2022-11-14T13:49:16.071Z,23.6
2022-11-14T13:50:18.382Z,23.6
2022-11-14T13:52:25.332Z,23.6
2022-11-14T13:53:27.750Z,23.6
2022-11-14T13:54:31.222Z,23.6
2022-11-14T13:55:33.703Z,23.6
2022-11-14T13:56:35.942Z,23.6
2022-11-14T13:57:38.449Z,23.6
2022-11-14T13:58:40.925Z,23.6
2022-11-14T13:59:43.398Z,23.6
2022-11-14T14:00:45.723Z,23.6
2022-11-14T14:01:48.314Z,23.6
2022-11-14T14:02:50.749Z,23.6
2022-11-14T14:03:53.231Z,23.6
2022-11-14T14:04:55.435Z,23.6
2022-11-14T14:07:03.491Z,23.6
2022-11-14T14:08:06.137Z,23.6
2022-11-14T14:09:08.337Z,23.6
2022-11-14T14:10:10.549Z,23.6
2022-11-14T14:11:12.742Z,23.6
2022-11-14T14:12:14.966Z,23.6
2022-11-14T14:13:17.230Z,23.6
2022-11-14T14:14:19.711Z,23.6
2022-11-14T14:15:22.192Z,23.6
2022-11-14T14:16:24.382Z,23.6
2022-11-14T14:17:26.576Z,23.6
2022-11-14T14:18:29.451Z,23.6